sensor_id;sensor_type;location;lat;lon;timestamp;P1;durP1;ratioP1;P2;durP2;ratioP2
9156;SDS011;4613;48.392;9.998;2023-07-31T00:00:15;1.27;;;1.03;;
9156;SDS011;4613;48.392;9.998;2023-07-31T00:03:04;1.83;;;1.30;;
9156;SDS011;4613;48.392;9.998;2023-07-31T00:05:53;1.30;;;1.20;;
9156;SDS011;4613;48.392;9.998;2023-07-31T00:08:43;1.47;;;0.97;;
9156;SDS011;4613;48.392;9.998;2023-07-31T00:11:33;1.30;;;1.17;;
9156;SDS011;4613;48.392;9.998;2023-07-31T00:14:22;1.80;;;1.00;;
9156;SDS011;4613;48.392;9.998;2023-07-31T00:17:11;1.03;;;1.03;;
9156;SDS011;4613;48.392;9.998;2023-07-31T00:20:01;1.30;;;1.00;;
9156;SDS011;4613;48.392;9.998;2023-07-31T00:22:51;1.20;;;1.10;;
9156;SDS011;4613;48.392;9.998;2023-07-31T00:25:41;0.90;;;0.90;;
9156;SDS011;4613;48.392;9.998;2023-07-31T00:28:30;1.00;;;1.00;;
9156;SDS011;4613;48.392;9.998;2023-07-31T00:31:21;1.33;;;1.23;;
9156;SDS011;4613;48.392;9.998;2023-07-31T00:34:14;1.23;;;1.10;;
9156;SDS011;4613;48.392;9.998;2023-07-31T00:37:03;1.20;;;1.10;;
9156;SDS011;4613;48.392;9.998;2023-07-31T00:39:53;0.97;;;0.97;;
9156;SDS011;4613;48.392;9.998;2023-07-31T00:42:43;0.90;;;0.90;;
9156;SDS011;4613;48.392;9.998;2023-07-31T00:45:33;0.90;;;0.90;;
9156;SDS011;4613;48.392;9.998;2023-07-31T00:48:22;2.10;;;1.30;;
9156;SDS011;4613;48.392;9.998;2023-07-31T00:51:12;1.57;;;1.30;;
9156;SDS011;4613;48.392;9.998;2023-07-31T00:54:02;1.07;;;1.00;;
9156;SDS011;4613;48.392;9.998;2023-07-31T00:56:52;1.10;;;1.10;;
9156;SDS011;4613;48.392;9.998;2023-07-31T00:59:44;2.27;;;1.10;;
9156;SDS011;4613;48.392;9.998;2023-07-31T01:02:35;1.17;;;1.07;;
9156;SDS011;4613;48.392;9.998;2023-07-31T01:05:47;1.30;;;1.00;;
9156;SDS011;4613;48.392;9.998;2023-07-31T01:08:57;2.73;;;1.00;;
9156;SDS011;4613;48.392;9.998;2023-07-31T01:11:57;1.33;;;1.10;;
9156;SDS011;4613;48.392;9.998;2023-07-31T01:15:12;1.30;;;1.20;;
9156;SDS011;4613;48.392;9.998;2023-07-31T01:18:02;1.00;;;1.00;;
9156;SDS011;4613;48.392;9.998;2023-07-31T01:20:54;1.10;;;1.00;;
9156;SDS011;4613;48.392;9.998;2023-07-31T01:26:58;1.87;;;0.90;;
9156;SDS011;4613;48.392;9.998;2023-07-31T01:30:00;1.10;;;1.00;;
9156;SDS011;4613;48.392;9.998;2023-07-31T01:32:59;1.00;;;1.00;;
9156;SDS011;4613;48.392;9.998;2023-07-31T01:35:51;1.17;;;1.17;;
9156;SDS011;4613;48.392;9.998;2023-07-31T01:38:41;2.53;;;1.03;;
9156;SDS011;4613;48.392;9.998;2023-07-31T01:41:31;1.00;;;1.00;;
9156;SDS011;4613;48.392;9.998;2023-07-31T01:44:20;1.40;;;1.30;;
9156;SDS011;4613;48.392;9.998;2023-07-31T01:47:10;1.03;;;1.03;;
9156;SDS011;4613;48.392;9.998;2023-07-31T01:50:00;1.10;;;1.10;;
9156;SDS011;4613;48.392;9.998;2023-07-31T01:52:49;1.13;;;1.10;;
9156;SDS011;4613;48.392;9.998;2023-07-31T01:55:39;0.90;;;0.90;;
9156;SDS011;4613;48.392;9.998;2023-07-31T01:58:29;1.20;;;1.07;;
9156;SDS011;4613;48.392;9.998;2023-07-31T02:01:19;2.00;;;1.27;;
9156;SDS011;4613;48.392;9.998;2023-07-31T02:04:09;1.20;;;1.10;;
9156;SDS011;4613;48.392;9.998;2023-07-31T02:06:58;0.90;;;0.90;;
9156;SDS011;4613;48.392;9.998;2023-07-31T02:09:48;1.23;;;1.23;;
9156;SDS011;4613;48.392;9.998;2023-07-31T02:12:38;1.07;;;1.07;;
9156;SDS011;4613;48.392;9.998;2023-07-31T02:15:27;1.87;;;1.30;;
9156;SDS011;4613;48.392;9.998;2023-07-31T02:18:17;1.20;;;1.10;;
9156;SDS011;4613;48.392;9.998;2023-07-31T02:21:06;1.20;;;1.10;;
9156;SDS011;4613;48.392;9.998;2023-07-31T02:23:56;1.20;;;1.10;;
9156;SDS011;4613;48.392;9.998;2023-07-31T02:26:45;1.43;;;1.20;;
9156;SDS011;4613;48.392;9.998;2023-07-31T02:29:34;1.00;;;1.00;;
9156;SDS011;4613;48.392;9.998;2023-07-31T02:32:24;1.10;;;1.10;;
9156;SDS011;4613;48.392;9.998;2023-07-31T02:35:13;1.53;;;1.30;;
9156;SDS011;4613;48.392;9.998;2023-07-31T02:38:04;2.07;;;1.40;;
9156;SDS011;4613;48.392;9.998;2023-07-31T02:40:53;1.40;;;1.33;;
9156;SDS011;4613;48.392;9.998;2023-07-31T02:43:42;1.03;;;1.03;;
9156;SDS011;4613;48.392;9.998;2023-07-31T02:46:32;1.30;;;1.20;;
9156;SDS011;4613;48.392;9.998;2023-07-31T02:49:21;2.90;;;1.87;;
9156;SDS011;4613;48.392;9.998;2023-07-31T02:52:10;1.30;;;1.10;;
9156;SDS011;4613;48.392;9.998;2023-07-31T02:54:59;2.00;;;1.23;;
9156;SDS011;4613;48.392;9.998;2023-07-31T02:57:49;1.37;;;1.13;;
9156;SDS011;4613;48.392;9.998;2023-07-31T03:00:43;1.50;;;1.40;;
9156;SDS011;4613;48.392;9.998;2023-07-31T03:03:33;1.90;;;1.70;;
9156;SDS011;4613;48.392;9.998;2023-07-31T03:06:23;2.47;;;1.60;;
9156;SDS011;4613;48.392;9.998;2023-07-31T03:09:13;1.40;;;1.30;;
9156;SDS011;4613;48.392;9.998;2023-07-31T03:12:02;1.30;;;1.20;;
9156;SDS011;4613;48.392;9.998;2023-07-31T03:14:52;1.47;;;1.30;;
9156;SDS011;4613;48.392;9.998;2023-07-31T03:17:41;1.40;;;1.30;;
9156;SDS011;4613;48.392;9.998;2023-07-31T03:20:30;3.53;;;1.50;;
9156;SDS011;4613;48.392;9.998;2023-07-31T03:23:20;1.37;;;1.27;;
9156;SDS011;4613;48.392;9.998;2023-07-31T03:26:11;1.70;;;1.30;;
9156;SDS011;4613;48.392;9.998;2023-07-31T03:29:00;1.57;;;1.47;;
9156;SDS011;4613;48.392;9.998;2023-07-31T03:31:53;1.50;;;1.30;;
9156;SDS011;4613;48.392;9.998;2023-07-31T03:34:42;2.27;;;1.50;;
9156;SDS011;4613;48.392;9.998;2023-07-31T03:37:32;1.53;;;1.43;;
9156;SDS011;4613;48.392;9.998;2023-07-31T03:40:21;1.50;;;1.40;;
9156;SDS011;4613;48.392;9.998;2023-07-31T03:43:10;1.40;;;1.30;;
9156;SDS011;4613;48.392;9.998;2023-07-31T03:46:02;1.37;;;1.27;;
9156;SDS011;4613;48.392;9.998;2023-07-31T03:48:51;1.33;;;1.20;;
9156;SDS011;4613;48.392;9.998;2023-07-31T03:51:40;3.63;;;1.53;;
9156;SDS011;4613;48.392;9.998;2023-07-31T03:54:30;2.77;;;1.63;;
9156;SDS011;4613;48.392;9.998;2023-07-31T03:57:20;1.77;;;1.50;;
9156;SDS011;4613;48.392;9.998;2023-07-31T04:00:09;1.43;;;1.30;;
9156;SDS011;4613;48.392;9.998;2023-07-31T04:03:03;1.47;;;1.37;;
9156;SDS011;4613;48.392;9.998;2023-07-31T04:05:53;1.50;;;1.37;;
9156;SDS011;4613;48.392;9.998;2023-07-31T04:08:44;2.70;;;1.50;;
9156;SDS011;4613;48.392;9.998;2023-07-31T04:11:34;1.50;;;1.40;;
9156;SDS011;4613;48.392;9.998;2023-07-31T04:14:23;2.30;;;1.40;;
9156;SDS011;4613;48.392;9.998;2023-07-31T04:17:13;1.50;;;1.40;;
9156;SDS011;4613;48.392;9.998;2023-07-31T04:20:02;1.57;;;1.40;;
9156;SDS011;4613;48.392;9.998;2023-07-31T04:22:52;2.73;;;1.50;;
9156;SDS011;4613;48.392;9.998;2023-07-31T04:25:42;2.63;;;1.40;;
9156;SDS011;4613;48.392;9.998;2023-07-31T04:28:31;1.63;;;1.43;;
9156;SDS011;4613;48.392;9.998;2023-07-31T04:31:20;5.90;;;1.57;;
9156;SDS011;4613;48.392;9.998;2023-07-31T04:34:09;1.30;;;1.30;;
9156;SDS011;4613;48.392;9.998;2023-07-31T04:36:58;1.17;;;1.07;;
9156;SDS011;4613;48.392;9.998;2023-07-31T04:39:48;1.33;;;1.27;;
9156;SDS011;4613;48.392;9.998;2023-07-31T04:42:38;1.90;;;1.40;;
9156;SDS011;4613;48.392;9.998;2023-07-31T04:45:27;1.40;;;1.30;;
9156;SDS011;4613;48.392;9.998;2023-07-31T04:48:16;1.47;;;1.37;;
9156;SDS011;4613;48.392;9.998;2023-07-31T04:51:05;1.67;;;1.47;;
9156;SDS011;4613;48.392;9.998;2023-07-31T04:53:54;1.63;;;1.50;;
9156;SDS011;4613;48.392;9.998;2023-07-31T04:56:45;1.63;;;1.47;;
9156;SDS011;4613;48.392;9.998;2023-07-31T04:59:34;1.70;;;1.60;;
9156;SDS011;4613;48.392;9.998;2023-07-31T05:02:23;0.93;;;0.93;;
9156;SDS011;4613;48.392;9.998;2023-07-31T05:05:13;2.60;;;1.43;;
9156;SDS011;4613;48.392;9.998;2023-07-31T05:08:02;1.53;;;1.20;;
9156;SDS011;4613;48.392;9.998;2023-07-31T05:10:52;3.70;;;1.40;;
9156;SDS011;4613;48.392;9.998;2023-07-31T05:13:42;1.57;;;1.40;;
9156;SDS011;4613;48.392;9.998;2023-07-31T05:16:32;1.60;;;1.40;;
9156;SDS011;4613;48.392;9.998;2023-07-31T05:19:21;1.57;;;1.30;;
9156;SDS011;4613;48.392;9.998;2023-07-31T05:22:11;2.20;;;1.60;;
9156;SDS011;4613;48.392;9.998;2023-07-31T05:25:00;1.50;;;1.40;;
9156;SDS011;4613;48.392;9.998;2023-07-31T05:27:49;1.63;;;1.53;;
9156;SDS011;4613;48.392;9.998;2023-07-31T05:30:39;6.00;;;1.90;;
9156;SDS011;4613;48.392;9.998;2023-07-31T05:33:29;3.90;;;2.30;;
9156;SDS011;4613;48.392;9.998;2023-07-31T05:36:19;4.00;;;2.47;;
9156;SDS011;4613;48.392;9.998;2023-07-31T05:39:09;3.40;;;2.57;;
9156;SDS011;4613;48.392;9.998;2023-07-31T05:41:58;3.97;;;2.50;;
9156;SDS011;4613;48.392;9.998;2023-07-31T05:44:48;3.10;;;2.37;;
9156;SDS011;4613;48.392;9.998;2023-07-31T05:47:37;3.53;;;2.53;;
9156;SDS011;4613;48.392;9.998;2023-07-31T05:50:27;3.70;;;2.37;;
9156;SDS011;4613;48.392;9.998;2023-07-31T05:53:16;2.80;;;2.00;;
9156;SDS011;4613;48.392;9.998;2023-07-31T05:56:06;3.50;;;1.90;;
9156;SDS011;4613;48.392;9.998;2023-07-31T05:58:56;2.20;;;1.83;;
9156;SDS011;4613;48.392;9.998;2023-07-31T06:01:46;2.73;;;2.17;;
9156;SDS011;4613;48.392;9.998;2023-07-31T06:04:36;2.10;;;1.90;;
9156;SDS011;4613;48.392;9.998;2023-07-31T06:07:25;2.50;;;2.30;;
9156;SDS011;4613;48.392;9.998;2023-07-31T06:10:14;2.53;;;1.90;;
9156;SDS011;4613;48.392;9.998;2023-07-31T06:13:04;1.67;;;1.57;;
9156;SDS011;4613;48.392;9.998;2023-07-31T06:15:53;1.87;;;1.77;;
9156;SDS011;4613;48.392;9.998;2023-07-31T06:18:42;1.90;;;1.33;;
9156;SDS011;4613;48.392;9.998;2023-07-31T06:21:31;1.53;;;1.43;;
9156;SDS011;4613;48.392;9.998;2023-07-31T06:24:21;1.67;;;1.40;;
9156;SDS011;4613;48.392;9.998;2023-07-31T06:27:11;1.63;;;1.33;;
9156;SDS011;4613;48.392;9.998;2023-07-31T06:30:00;1.47;;;1.30;;
9156;SDS011;4613;48.392;9.998;2023-07-31T06:32:49;2.27;;;1.60;;
9156;SDS011;4613;48.392;9.998;2023-07-31T06:35:39;2.70;;;1.50;;
9156;SDS011;4613;48.392;9.998;2023-07-31T06:38:29;1.33;;;1.20;;
9156;SDS011;4613;48.392;9.998;2023-07-31T06:41:18;1.13;;;1.13;;
9156;SDS011;4613;48.392;9.998;2023-07-31T06:44:10;1.40;;;1.30;;
9156;SDS011;4613;48.392;9.998;2023-07-31T06:46:59;2.17;;;1.50;;
9156;SDS011;4613;48.392;9.998;2023-07-31T06:49:49;1.33;;;1.27;;
9156;SDS011;4613;48.392;9.998;2023-07-31T06:52:39;1.77;;;1.20;;
9156;SDS011;4613;48.392;9.998;2023-07-31T06:55:29;2.13;;;1.30;;
9156;SDS011;4613;48.392;9.998;2023-07-31T06:58:18;1.37;;;1.27;;
9156;SDS011;4613;48.392;9.998;2023-07-31T07:01:08;1.40;;;1.30;;
9156;SDS011;4613;48.392;9.998;2023-07-31T07:03:57;1.40;;;1.30;;
9156;SDS011;4613;48.392;9.998;2023-07-31T07:06:47;1.60;;;1.50;;
9156;SDS011;4613;48.392;9.998;2023-07-31T07:09:36;1.40;;;1.23;;
9156;SDS011;4613;48.392;9.998;2023-07-31T07:12:28;1.83;;;1.37;;
9156;SDS011;4613;48.392;9.998;2023-07-31T07:15:19;1.30;;;1.20;;
9156;SDS011;4613;48.392;9.998;2023-07-31T07:18:08;1.23;;;1.20;;
9156;SDS011;4613;48.392;9.998;2023-07-31T07:20:59;9.10;;;1.40;;
9156;SDS011;4613;48.392;9.998;2023-07-31T07:23:50;1.10;;;1.10;;
9156;SDS011;4613;48.392;9.998;2023-07-31T07:26:40;1.20;;;1.10;;
9156;SDS011;4613;48.392;9.998;2023-07-31T07:29:29;1.20;;;1.20;;
9156;SDS011;4613;48.392;9.998;2023-07-31T07:32:19;1.40;;;1.30;;
9156;SDS011;4613;48.392;9.998;2023-07-31T07:35:09;3.07;;;1.20;;
9156;SDS011;4613;48.392;9.998;2023-07-31T07:37:59;1.50;;;1.23;;
9156;SDS011;4613;48.392;9.998;2023-07-31T07:40:50;5.80;;;1.33;;
9156;SDS011;4613;48.392;9.998;2023-07-31T07:43:41;1.37;;;1.27;;
9156;SDS011;4613;48.392;9.998;2023-07-31T07:46:31;1.30;;;1.20;;
9156;SDS011;4613;48.392;9.998;2023-07-31T07:49:20;0.90;;;0.90;;
9156;SDS011;4613;48.392;9.998;2023-07-31T07:52:11;1.10;;;1.00;;
9156;SDS011;4613;48.392;9.998;2023-07-31T07:55:00;1.10;;;1.10;;
9156;SDS011;4613;48.392;9.998;2023-07-31T07:57:49;1.10;;;1.00;;
9156;SDS011;4613;48.392;9.998;2023-07-31T08:00:39;1.00;;;1.00;;
9156;SDS011;4613;48.392;9.998;2023-07-31T08:03:28;0.80;;;0.80;;
9156;SDS011;4613;48.392;9.998;2023-07-31T08:06:18;1.10;;;1.10;;
9156;SDS011;4613;48.392;9.998;2023-07-31T08:09:08;1.10;;;1.10;;
9156;SDS011;4613;48.392;9.998;2023-07-31T08:11:59;1.20;;;1.10;;
9156;SDS011;4613;48.392;9.998;2023-07-31T08:14:51;1.33;;;1.23;;
9156;SDS011;4613;48.392;9.998;2023-07-31T08:17:41;1.00;;;1.00;;
9156;SDS011;4613;48.392;9.998;2023-07-31T08:20:30;1.00;;;1.00;;
9156;SDS011;4613;48.392;9.998;2023-07-31T08:23:19;1.50;;;0.90;;
9156;SDS011;4613;48.392;9.998;2023-07-31T08:26:14;1.23;;;1.13;;
9156;SDS011;4613;48.392;9.998;2023-07-31T08:29:07;1.03;;;1.00;;
9156;SDS011;4613;48.392;9.998;2023-07-31T08:31:56;1.07;;;1.03;;
9156;SDS011;4613;48.392;9.998;2023-07-31T08:34:45;1.00;;;1.00;;
9156;SDS011;4613;48.392;9.998;2023-07-31T08:37:34;3.13;;;1.30;;
9156;SDS011;4613;48.392;9.998;2023-07-31T08:40:26;1.27;;;1.17;;
9156;SDS011;4613;48.392;9.998;2023-07-31T08:43:17;1.23;;;1.13;;
9156;SDS011;4613;48.392;9.998;2023-07-31T08:46:07;1.23;;;1.10;;
9156;SDS011;4613;48.392;9.998;2023-07-31T08:48:58;0.93;;;0.93;;
9156;SDS011;4613;48.392;9.998;2023-07-31T08:51:49;2.63;;;1.00;;
9156;SDS011;4613;48.392;9.998;2023-07-31T08:54:39;1.10;;;1.00;;
9156;SDS011;4613;48.392;9.998;2023-07-31T08:57:28;1.00;;;1.00;;
9156;SDS011;4613;48.392;9.998;2023-07-31T09:00:19;1.33;;;1.23;;
9156;SDS011;4613;48.392;9.998;2023-07-31T09:06:22;1.20;;;1.10;;
9156;SDS011;4613;48.392;9.998;2023-07-31T09:09:13;1.30;;;1.20;;
9156;SDS011;4613;48.392;9.998;2023-07-31T09:12:03;3.20;;;1.20;;
9156;SDS011;4613;48.392;9.998;2023-07-31T09:14:53;1.87;;;1.27;;
9156;SDS011;4613;48.392;9.998;2023-07-31T09:17:43;2.47;;;1.23;;
9156;SDS011;4613;48.392;9.998;2023-07-31T09:20:33;1.23;;;1.10;;
9156;SDS011;4613;48.392;9.998;2023-07-31T09:23:23;1.20;;;1.10;;
9156;SDS011;4613;48.392;9.998;2023-07-31T09:26:28;1.23;;;1.00;;
9156;SDS011;4613;48.392;9.998;2023-07-31T09:29:27;1.00;;;1.00;;
9156;SDS011;4613;48.392;9.998;2023-07-31T09:32:18;1.63;;;1.00;;
9156;SDS011;4613;48.392;9.998;2023-07-31T09:38:11;1.13;;;1.10;;
9156;SDS011;4613;48.392;9.998;2023-07-31T09:41:02;1.57;;;1.30;;
9156;SDS011;4613;48.392;9.998;2023-07-31T09:43:54;1.00;;;1.00;;
9156;SDS011;4613;48.392;9.998;2023-07-31T09:46:45;1.53;;;1.13;;
9156;SDS011;4613;48.392;9.998;2023-07-31T09:49:34;2.13;;;1.13;;
9156;SDS011;4613;48.392;9.998;2023-07-31T09:52:25;1.70;;;1.00;;
9156;SDS011;4613;48.392;9.998;2023-07-31T09:55:15;1.23;;;1.13;;
9156;SDS011;4613;48.392;9.998;2023-07-31T09:58:05;2.20;;;1.13;;
9156;SDS011;4613;48.392;9.998;2023-07-31T10:00:58;1.33;;;1.13;;
9156;SDS011;4613;48.392;9.998;2023-07-31T10:03:48;0.97;;;0.97;;
9156;SDS011;4613;48.392;9.998;2023-07-31T10:06:40;1.20;;;1.10;;
9156;SDS011;4613;48.392;9.998;2023-07-31T10:09:32;1.70;;;1.20;;
9156;SDS011;4613;48.392;9.998;2023-07-31T10:12:23;1.30;;;1.20;;
9156;SDS011;4613;48.392;9.998;2023-07-31T10:15:16;1.33;;;1.23;;
9156;SDS011;4613;48.392;9.998;2023-07-31T10:18:07;1.57;;;1.13;;
9156;SDS011;4613;48.392;9.998;2023-07-31T10:20:56;1.30;;;1.20;;
9156;SDS011;4613;48.392;9.998;2023-07-31T10:23:48;1.00;;;1.00;;
9156;SDS011;4613;48.392;9.998;2023-07-31T10:26:40;0.90;;;0.90;;
9156;SDS011;4613;48.392;9.998;2023-07-31T10:29:32;1.00;;;1.00;;
9156;SDS011;4613;48.392;9.998;2023-07-31T10:32:23;2.40;;;1.10;;
9156;SDS011;4613;48.392;9.998;2023-07-31T10:35:16;1.27;;;1.03;;
9156;SDS011;4613;48.392;9.998;2023-07-31T10:38:11;0.83;;;0.83;;
9156;SDS011;4613;48.392;9.998;2023-07-31T10:41:08;1.10;;;1.10;;
9156;SDS011;4613;48.392;9.998;2023-07-31T10:43:59;3.23;;;1.10;;
9156;SDS011;4613;48.392;9.998;2023-07-31T10:46:49;0.87;;;0.87;;
9156;SDS011;4613;48.392;9.998;2023-07-31T10:49:44;1.10;;;1.00;;
9156;SDS011;4613;48.392;9.998;2023-07-31T10:52:35;1.73;;;1.10;;
9156;SDS011;4613;48.392;9.998;2023-07-31T10:58:14;2.20;;;1.33;;
9156;SDS011;4613;48.392;9.998;2023-07-31T11:01:07;2.70;;;0.90;;
9156;SDS011;4613;48.392;9.998;2023-07-31T11:03:56;1.23;;;1.17;;
9156;SDS011;4613;48.392;9.998;2023-07-31T11:06:55;1.87;;;1.13;;
9156;SDS011;4613;48.392;9.998;2023-07-31T11:09:47;1.10;;;1.00;;
9156;SDS011;4613;48.392;9.998;2023-07-31T11:12:37;1.20;;;1.10;;
9156;SDS011;4613;48.392;9.998;2023-07-31T11:15:27;1.40;;;1.30;;
9156;SDS011;4613;48.392;9.998;2023-07-31T11:18:16;1.27;;;1.10;;
9156;SDS011;4613;48.392;9.998;2023-07-31T11:21:06;0.93;;;0.93;;
9156;SDS011;4613;48.392;9.998;2023-07-31T11:23:56;1.47;;;1.00;;
9156;SDS011;4613;48.392;9.998;2023-07-31T11:26:50;1.17;;;1.03;;
9156;SDS011;4613;48.392;9.998;2023-07-31T11:29:42;1.03;;;1.03;;
9156;SDS011;4613;48.392;9.998;2023-07-31T11:32:31;1.40;;;1.17;;
9156;SDS011;4613;48.392;9.998;2023-07-31T11:35:21;1.50;;;1.20;;
9156;SDS011;4613;48.392;9.998;2023-07-31T11:38:11;1.13;;;1.03;;
9156;SDS011;4613;48.392;9.998;2023-07-31T11:41:09;1.20;;;1.00;;
9156;SDS011;4613;48.392;9.998;2023-07-31T11:43:59;1.17;;;1.07;;
9156;SDS011;4613;48.392;9.998;2023-07-31T11:46:49;1.30;;;1.20;;
9156;SDS011;4613;48.392;9.998;2023-07-31T11:49:39;1.17;;;1.07;;
9156;SDS011;4613;48.392;9.998;2023-07-31T11:52:28;1.10;;;1.10;;
9156;SDS011;4613;48.392;9.998;2023-07-31T11:55:21;0.93;;;0.93;;
9156;SDS011;4613;48.392;9.998;2023-07-31T11:58:11;1.33;;;1.23;;
9156;SDS011;4613;48.392;9.998;2023-07-31T12:01:00;0.97;;;0.97;;
9156;SDS011;4613;48.392;9.998;2023-07-31T12:03:50;0.93;;;0.93;;
9156;SDS011;4613;48.392;9.998;2023-07-31T12:06:40;1.47;;;1.03;;
9156;SDS011;4613;48.392;9.998;2023-07-31T12:09:30;1.00;;;1.00;;
9156;SDS011;4613;48.392;9.998;2023-07-31T12:12:23;1.07;;;1.07;;
9156;SDS011;4613;48.392;9.998;2023-07-31T12:15:15;1.93;;;1.40;;
9156;SDS011;4613;48.392;9.998;2023-07-31T12:18:06;2.03;;;1.43;;
9156;SDS011;4613;48.392;9.998;2023-07-31T12:20:57;1.33;;;1.20;;
9156;SDS011;4613;48.392;9.998;2023-07-31T12:23:47;1.30;;;1.20;;
9156;SDS011;4613;48.392;9.998;2023-07-31T12:26:36;2.00;;;1.20;;
9156;SDS011;4613;48.392;9.998;2023-07-31T12:29:33;1.00;;;1.00;;
9156;SDS011;4613;48.392;9.998;2023-07-31T12:32:24;1.00;;;1.00;;
9156;SDS011;4613;48.392;9.998;2023-07-31T12:35:17;1.00;;;1.00;;
9156;SDS011;4613;48.392;9.998;2023-07-31T12:38:06;1.53;;;1.10;;
9156;SDS011;4613;48.392;9.998;2023-07-31T12:40:56;1.00;;;1.00;;
9156;SDS011;4613;48.392;9.998;2023-07-31T12:43:46;1.70;;;1.33;;
9156;SDS011;4613;48.392;9.998;2023-07-31T12:46:35;3.50;;;1.60;;
9156;SDS011;4613;48.392;9.998;2023-07-31T12:49:24;1.90;;;1.40;;
9156;SDS011;4613;48.392;9.998;2023-07-31T12:52:14;2.77;;;1.50;;
9156;SDS011;4613;48.392;9.998;2023-07-31T12:55:04;1.40;;;1.30;;
9156;SDS011;4613;48.392;9.998;2023-07-31T12:57:53;1.23;;;1.20;;
9156;SDS011;4613;48.392;9.998;2023-07-31T13:00:43;1.20;;;1.10;;
9156;SDS011;4613;48.392;9.998;2023-07-31T13:03:32;1.43;;;1.33;;
9156;SDS011;4613;48.392;9.998;2023-07-31T13:06:21;1.10;;;1.10;;
9156;SDS011;4613;48.392;9.998;2023-07-31T13:09:11;0.90;;;0.90;;
9156;SDS011;4613;48.392;9.998;2023-07-31T13:12:01;1.20;;;1.10;;
9156;SDS011;4613;48.392;9.998;2023-07-31T13:14:50;1.27;;;1.17;;
9156;SDS011;4613;48.392;9.998;2023-07-31T13:17:40;1.10;;;1.00;;
9156;SDS011;4613;48.392;9.998;2023-07-31T13:20:29;1.30;;;1.20;;
9156;SDS011;4613;48.392;9.998;2023-07-31T13:23:19;1.13;;;1.10;;
9156;SDS011;4613;48.392;9.998;2023-07-31T13:26:08;3.13;;;1.23;;
9156;SDS011;4613;48.392;9.998;2023-07-31T13:28:57;1.30;;;1.20;;
9156;SDS011;4613;48.392;9.998;2023-07-31T13:31:47;1.20;;;1.20;;
9156;SDS011;4613;48.392;9.998;2023-07-31T13:34:36;1.60;;;1.50;;
9156;SDS011;4613;48.392;9.998;2023-07-31T13:37:26;2.27;;;1.30;;
9156;SDS011;4613;48.392;9.998;2023-07-31T13:40:16;1.97;;;1.40;;
9156;SDS011;4613;48.392;9.998;2023-07-31T13:43:05;1.90;;;1.30;;
9156;SDS011;4613;48.392;9.998;2023-07-31T13:45:55;1.63;;;1.27;;
9156;SDS011;4613;48.392;9.998;2023-07-31T13:48:45;1.03;;;1.03;;
9156;SDS011;4613;48.392;9.998;2023-07-31T13:51:35;1.53;;;1.30;;
9156;SDS011;4613;48.392;9.998;2023-07-31T13:54:24;2.67;;;1.10;;
9156;SDS011;4613;48.392;9.998;2023-07-31T13:57:14;1.33;;;1.23;;
9156;SDS011;4613;48.392;9.998;2023-07-31T14:00:04;1.60;;;1.50;;
9156;SDS011;4613;48.392;9.998;2023-07-31T14:02:55;1.60;;;1.50;;
9156;SDS011;4613;48.392;9.998;2023-07-31T14:05:44;2.20;;;1.50;;
9156;SDS011;4613;48.392;9.998;2023-07-31T14:08:34;1.30;;;1.20;;
9156;SDS011;4613;48.392;9.998;2023-07-31T14:11:23;1.40;;;1.10;;
9156;SDS011;4613;48.392;9.998;2023-07-31T14:14:13;1.47;;;1.20;;
9156;SDS011;4613;48.392;9.998;2023-07-31T14:17:02;1.47;;;1.37;;
9156;SDS011;4613;48.392;9.998;2023-07-31T14:19:51;1.00;;;1.00;;
9156;SDS011;4613;48.392;9.998;2023-07-31T14:22:41;1.50;;;1.40;;
9156;SDS011;4613;48.392;9.998;2023-07-31T14:25:30;1.50;;;1.40;;
9156;SDS011;4613;48.392;9.998;2023-07-31T14:28:19;1.47;;;1.23;;
9156;SDS011;4613;48.392;9.998;2023-07-31T14:31:08;1.90;;;1.30;;
9156;SDS011;4613;48.392;9.998;2023-07-31T14:33:57;1.70;;;1.50;;
9156;SDS011;4613;48.392;9.998;2023-07-31T14:36:46;2.07;;;1.40;;
9156;SDS011;4613;48.392;9.998;2023-07-31T14:39:36;2.90;;;1.20;;
9156;SDS011;4613;48.392;9.998;2023-07-31T14:42:25;3.00;;;1.50;;
9156;SDS011;4613;48.392;9.998;2023-07-31T14:45:14;1.30;;;1.17;;
9156;SDS011;4613;48.392;9.998;2023-07-31T14:48:03;1.90;;;1.30;;
9156;SDS011;4613;48.392;9.998;2023-07-31T14:50:53;3.03;;;1.30;;
9156;SDS011;4613;48.392;9.998;2023-07-31T14:53:42;1.80;;;1.30;;
9156;SDS011;4613;48.392;9.998;2023-07-31T14:56:31;1.97;;;1.50;;
9156;SDS011;4613;48.392;9.998;2023-07-31T14:59:21;1.40;;;1.30;;
9156;SDS011;4613;48.392;9.998;2023-07-31T15:02:10;1.40;;;1.30;;
9156;SDS011;4613;48.392;9.998;2023-07-31T15:05:00;1.00;;;1.00;;
9156;SDS011;4613;48.392;9.998;2023-07-31T15:07:50;1.90;;;1.40;;
9156;SDS011;4613;48.392;9.998;2023-07-31T15:10:39;1.30;;;1.20;;
9156;SDS011;4613;48.392;9.998;2023-07-31T15:13:28;1.57;;;1.47;;
9156;SDS011;4613;48.392;9.998;2023-07-31T15:16:17;1.40;;;1.30;;
9156;SDS011;4613;48.392;9.998;2023-07-31T15:19:06;1.30;;;1.20;;
9156;SDS011;4613;48.392;9.998;2023-07-31T15:21:56;1.43;;;1.20;;
9156;SDS011;4613;48.392;9.998;2023-07-31T15:24:45;1.37;;;1.27;;
9156;SDS011;4613;48.392;9.998;2023-07-31T15:27:34;1.83;;;1.20;;
9156;SDS011;4613;48.392;9.998;2023-07-31T15:30:23;1.27;;;1.17;;
9156;SDS011;4613;48.392;9.998;2023-07-31T15:33:13;1.50;;;1.40;;
9156;SDS011;4613;48.392;9.998;2023-07-31T15:36:04;1.60;;;1.30;;
9156;SDS011;4613;48.392;9.998;2023-07-31T15:38:53;1.33;;;1.23;;
9156;SDS011;4613;48.392;9.998;2023-07-31T15:41:42;1.50;;;1.40;;
9156;SDS011;4613;48.392;9.998;2023-07-31T15:44:31;1.30;;;1.20;;
9156;SDS011;4613;48.392;9.998;2023-07-31T15:47:21;1.93;;;1.50;;
9156;SDS011;4613;48.392;9.998;2023-07-31T15:50:10;1.30;;;1.20;;
9156;SDS011;4613;48.392;9.998;2023-07-31T15:53:00;1.27;;;1.17;;
9156;SDS011;4613;48.392;9.998;2023-07-31T15:55:49;2.90;;;1.50;;
9156;SDS011;4613;48.392;9.998;2023-07-31T15:58:39;1.57;;;1.30;;
9156;SDS011;4613;48.392;9.998;2023-07-31T16:01:28;2.87;;;1.57;;
9156;SDS011;4613;48.392;9.998;2023-07-31T16:04:18;1.27;;;1.17;;
9156;SDS011;4613;48.392;9.998;2023-07-31T16:07:07;1.97;;;1.43;;
9156;SDS011;4613;48.392;9.998;2023-07-31T16:09:57;1.70;;;1.60;;
9156;SDS011;4613;48.392;9.998;2023-07-31T16:12:47;1.20;;;1.20;;
9156;SDS011;4613;48.392;9.998;2023-07-31T16:15:36;1.47;;;1.27;;
9156;SDS011;4613;48.392;9.998;2023-07-31T16:18:25;1.33;;;1.23;;
9156;SDS011;4613;48.392;9.998;2023-07-31T16:21:14;1.87;;;1.40;;
9156;SDS011;4613;48.392;9.998;2023-07-31T16:24:03;1.50;;;1.30;;
9156;SDS011;4613;48.392;9.998;2023-07-31T16:26:53;2.73;;;1.47;;
9156;SDS011;4613;48.392;9.998;2023-07-31T16:29:42;1.60;;;1.43;;
9156;SDS011;4613;48.392;9.998;2023-07-31T16:32:31;1.40;;;1.30;;
9156;SDS011;4613;48.392;9.998;2023-07-31T16:35:21;1.50;;;1.40;;
9156;SDS011;4613;48.392;9.998;2023-07-31T16:38:10;1.40;;;1.30;;
9156;SDS011;4613;48.392;9.998;2023-07-31T16:41:00;1.87;;;1.20;;
9156;SDS011;4613;48.392;9.998;2023-07-31T16:43:49;1.50;;;1.40;;
9156;SDS011;4613;48.392;9.998;2023-07-31T16:46:38;1.70;;;1.60;;
9156;SDS011;4613;48.392;9.998;2023-07-31T16:49:28;1.73;;;1.47;;
9156;SDS011;4613;48.392;9.998;2023-07-31T16:52:18;1.53;;;1.43;;
9156;SDS011;4613;48.392;9.998;2023-07-31T16:55:07;1.50;;;1.40;;
9156;SDS011;4613;48.392;9.998;2023-07-31T16:57:56;1.50;;;1.40;;
9156;SDS011;4613;48.392;9.998;2023-07-31T17:00:45;1.33;;;1.23;;
9156;SDS011;4613;48.392;9.998;2023-07-31T17:03:35;1.57;;;1.27;;
9156;SDS011;4613;48.392;9.998;2023-07-31T17:06:24;1.70;;;1.60;;
9156;SDS011;4613;48.392;9.998;2023-07-31T17:09:15;1.20;;;1.20;;
9156;SDS011;4613;48.392;9.998;2023-07-31T17:12:04;1.60;;;1.50;;
9156;SDS011;4613;48.392;9.998;2023-07-31T17:14:53;2.50;;;1.33;;
9156;SDS011;4613;48.392;9.998;2023-07-31T17:17:42;1.43;;;1.30;;
9156;SDS011;4613;48.392;9.998;2023-07-31T17:20:31;1.87;;;1.60;;
9156;SDS011;4613;48.392;9.998;2023-07-31T17:23:21;1.60;;;1.50;;
9156;SDS011;4613;48.392;9.998;2023-07-31T17:26:10;2.17;;;1.60;;
9156;SDS011;4613;48.392;9.998;2023-07-31T17:29:01;1.47;;;1.37;;
9156;SDS011;4613;48.392;9.998;2023-07-31T17:31:50;1.60;;;1.50;;
9156;SDS011;4613;48.392;9.998;2023-07-31T17:34:39;1.50;;;1.40;;
9156;SDS011;4613;48.392;9.998;2023-07-31T17:37:29;1.43;;;1.33;;
9156;SDS011;4613;48.392;9.998;2023-07-31T17:40:18;1.23;;;1.20;;
9156;SDS011;4613;48.392;9.998;2023-07-31T17:43:07;1.43;;;1.33;;
9156;SDS011;4613;48.392;9.998;2023-07-31T17:45:57;1.60;;;1.50;;
9156;SDS011;4613;48.392;9.998;2023-07-31T17:48:46;1.50;;;1.40;;